createdAt,value
2022-10-11T00:00:24.761Z,97450.50
2022-10-11T00:03:07.041Z,97462.69
2022-10-11T00:05:49.092Z,97456.09
2022-10-11T00:08:30.340Z,97457.16
2022-10-11T00:11:11.944Z,97464.13
2022-10-11T00:13:53.785Z,97469.31
2022-10-11T00:16:38.824Z,97467.91
2022-10-11T00:19:20.958Z,97468.75
2022-10-11T00:22:01.954Z,97476.38
2022-10-11T00:24:44.088Z,97478.75
2022-10-11T00:27:24.588Z,97488.06
2022-10-11T00:30:07.672Z,97488.84
2022-10-11T00:32:50.553Z,97490.91
2022-10-11T00:35:32.333Z,97498.22
2022-10-11T00:38:13.544Z,97495.88
2022-10-11T00:40:55.966Z,97504.66
2022-10-11T00:43:38.556Z,97511.63
2022-10-11T00:46:34.129Z,97513.56
2022-10-11T00:49:26.871Z,97518.53
2022-10-11T00:52:15.994Z,97518.75
2022-10-11T00:54:59.560Z,97522.75
2022-10-11T00:57:46.391Z,97522.91
2022-10-11T01:00:29.301Z,97526.41
2022-10-11T01:03:12.149Z,97534.41
2022-10-11T01:05:54.602Z,97535.69
2022-10-11T01:08:35.899Z,97537.84
2022-10-11T01:11:20.842Z,97548.81
2022-10-11T01:14:16.755Z,97550.47
2022-10-11T01:17:05.016Z,97542.25
2022-10-11T01:20:02.071Z,97547.97
2022-10-11T01:23:17.052Z,97544.25
2022-10-11T01:26:20.794Z,97539.00
2022-10-11T01:29:15.079Z,97541.13
2022-10-11T01:32:02.606Z,97546.09
2022-10-11T01:34:56.114Z,97553.97
2022-10-11T01:37:41.587Z,97557.84
2022-10-11T01:40:29.481Z,97546.44
2022-10-11T01:43:13.164Z,97549.28
2022-10-11T01:45:57.615Z,97557.53
2022-10-11T01:48:51.241Z,97558.31
2022-10-11T01:51:37.864Z,97553.75
2022-10-11T01:55:08.678Z,97546.59
2022-10-11T01:58:09.222Z,97548.09
2022-10-11T02:00:58.158Z,97554.44
2022-10-11T02:03:48.291Z,97557.69
2022-10-11T02:06:37.901Z,97567.81
2022-10-11T02:09:27.133Z,97564.88
2022-10-11T02:12:13.683Z,97572.91
2022-10-11T02:14:57.587Z,97582.16
2022-10-11T02:17:45.960Z,97588.69
2022-10-11T02:20:33.176Z,97584.94
2022-10-11T02:23:21.774Z,97584.50
2022-10-11T02:26:06.878Z,97587.59
2022-10-11T02:28:52.609Z,97586.88
2022-10-11T02:31:36.739Z,97588.25
2022-10-11T02:34:29.141Z,97599.78
2022-10-11T02:37:17.998Z,97598.13
2022-10-11T02:40:05.404Z,97599.06
2022-10-11T02:42:52.386Z,97599.78
2022-10-11T02:45:39.133Z,97592.97
2022-10-11T02:48:21.321Z,97603.66
2022-10-11T02:51:04.918Z,97599.22
2022-10-11T02:53:47.106Z,97599.41
2022-10-11T02:56:30.155Z,97610.00
2022-10-11T02:59:10.921Z,97604.09
2022-10-11T03:01:52.367Z,97615.44
2022-10-11T03:04:34.130Z,97614.56
2022-10-11T03:07:15.790Z,97619.41
2022-10-11T03:09:58.168Z,97618.09
2022-10-11T03:12:40.072Z,97622.13
2022-10-11T03:15:22.554Z,97619.31
2022-10-11T03:18:04.622Z,97634.09
2022-10-11T03:20:48.123Z,97633.47
2022-10-11T03:23:30.346Z,97633.06
2022-10-11T03:26:12.512Z,97636.34
2022-10-11T03:28:53.076Z,97635.72
2022-10-11T03:31:34.134Z,97647.25
2022-10-11T03:34:15.521Z,97645.38
2022-10-11T03:36:56.711Z,97654.78
2022-10-11T03:39:38.998Z,97644.41
2022-10-11T03:42:20.058Z,97646.59
2022-10-11T03:45:04.918Z,97647.16
2022-10-11T03:47:45.741Z,97649.81
2022-10-11T03:50:27.118Z,97654.84
2022-10-11T03:53:08.841Z,97648.69
2022-10-11T03:55:53.886Z,97650.91
2022-10-11T03:58:35.054Z,97650.63
2022-10-11T04:01:16.052Z,97641.41
2022-10-11T04:03:58.497Z,97641.94
2022-10-11T04:06:38.581Z,97660.41
2022-10-11T04:09:20.231Z,97673.75
2022-10-11T04:12:01.905Z,97672.50
2022-10-11T04:14:42.998Z,97695.81
2022-10-11T04:17:24.516Z,97699.16
2022-10-11T04:20:07.969Z,97705.63
2022-10-11T04:22:49.329Z,97711.31
2022-10-11T04:25:30.511Z,97715.09
2022-10-11T04:28:11.764Z,97708.22
2022-10-11T04:30:53.839Z,97714.25
2022-10-11T04:33:33.554Z,97730.94
2022-10-11T04:36:14.195Z,97729.94
2022-10-11T04:38:56.282Z,97722.03
2022-10-11T04:41:37.243Z,97726.34
2022-10-11T04:44:18.768Z,97732.16
2022-10-11T04:46:59.895Z,97733.81
2022-10-11T04:49:41.187Z,97729.44
2022-10-11T04:52:25.934Z,97735.34
2022-10-11T04:55:08.341Z,97737.19
2022-10-11T04:57:49.074Z,97739.72
2022-10-11T05:00:30.292Z,97733.59
2022-10-11T05:03:12.227Z,97741.19
2022-10-11T05:05:56.517Z,97747.00
2022-10-11T05:08:37.537Z,97753.69
2022-10-11T05:11:19.805Z,97746.09
2022-10-11T05:14:00.368Z,97751.19
2022-10-11T05:16:41.698Z,97755.00
2022-10-11T05:19:23.461Z,97764.97
2022-10-11T05:22:07.332Z,97767.34
2022-10-11T05:24:47.808Z,97776.28
2022-10-11T05:27:29.328Z,97784.47
2022-10-11T05:30:11.928Z,97777.97
2022-10-11T05:33:08.224Z,97790.66
2022-10-11T05:35:49.613Z,97797.63
2022-10-11T05:38:30.826Z,97807.47
2022-10-11T05:41:14.944Z,97809.78
2022-10-11T05:43:56.492Z,97812.81
2022-10-11T05:46:38.040Z,97815.28
2022-10-11T05:49:19.648Z,97821.91
2022-10-11T05:52:00.860Z,97822.69
2022-10-11T05:54:42.512Z,97830.88
2022-10-11T05:57:24.106Z,97820.06
2022-10-11T06:00:05.614Z,97832.66
2022-10-11T06:02:53.568Z,97828.47
2022-10-11T06:05:35.660Z,97841.63
2022-10-11T06:08:17.598Z,97838.22
2022-10-11T06:10:58.590Z,97846.19
2022-10-11T06:13:46.876Z,97851.59
2022-10-11T06:16:50.858Z,97853.09
2022-10-11T06:19:45.326Z,97859.16
2022-10-11T06:22:45.124Z,97860.72
2022-10-11T06:25:40.055Z,97869.03
2022-10-11T06:28:46.724Z,97871.88
2022-10-11T06:31:56.764Z,97888.22
2022-10-11T06:34:52.067Z,97890.03
2022-10-11T06:37:51.465Z,97896.72
2022-10-11T06:40:56.007Z,97900.38
2022-10-11T06:43:50.650Z,97900.78
2022-10-11T06:46:46.989Z,97904.94
2022-10-11T06:49:41.908Z,97907.25
2022-10-11T06:52:40.251Z,97910.41
2022-10-11T06:55:38.284Z,97913.75
2022-10-11T06:58:39.139Z,97916.00
2022-10-11T07:01:36.014Z,97914.47
2022-10-11T07:04:35.115Z,97901.06
2022-10-11T07:07:38.452Z,97914.25
2022-10-11T07:10:39.044Z,97903.69
2022-10-11T07:13:33.988Z,97903.44
2022-10-11T07:16:31.725Z,97900.03
2022-10-11T07:19:36.023Z,97894.69
2022-10-11T07:22:37.085Z,97911.66
2022-10-11T07:25:34.386Z,97914.41
2022-10-11T07:28:32.673Z,97933.31
2022-10-11T07:32:11.363Z,97927.81
2022-10-11T07:35:11.743Z,97928.13
2022-10-11T07:38:11.432Z,97936.47
2022-10-11T07:41:07.385Z,97944.56
2022-10-11T07:44:07.008Z,97947.78
2022-10-11T07:47:08.964Z,97942.84
2022-10-11T07:50:11.429Z,97925.63
2022-10-11T07:53:10.013Z,97916.16
2022-10-11T07:56:09.457Z,97910.41
2022-10-11T07:59:12.193Z,97903.00
2022-10-11T08:01:51.650Z,97911.34
2022-10-11T08:04:58.522Z,97920.78
2022-10-11T08:08:06.288Z,97909.56
2022-10-11T08:11:06.620Z,97907.09
2022-10-11T08:14:08.871Z,97917.06
2022-10-11T08:17:05.997Z,97914.03
2022-10-11T08:20:15.722Z,97918.31
2022-10-11T08:23:23.037Z,97929.03
2022-10-11T08:26:17.936Z,97927.69
2022-10-11T08:29:22.098Z,97927.75
2022-10-11T08:32:16.415Z,97927.97
2022-10-11T08:35:30.094Z,97926.63
2022-10-11T08:38:31.083Z,97938.03
2022-10-11T08:41:49.806Z,97933.38
2022-10-11T08:45:10.012Z,97945.72
2022-10-11T08:48:15.765Z,97953.16
2022-10-11T08:51:29.361Z,97946.00
2022-10-11T08:54:33.328Z,97940.38
2022-10-11T08:57:41.041Z,97951.44
2022-10-11T09:00:38.253Z,97951.09
2022-10-11T09:03:40.490Z,97953.06
2022-10-11T09:06:35.108Z,97954.03
2022-10-11T09:09:37.953Z,97955.44
2022-10-11T09:12:32.385Z,97957.16
2022-10-11T09:15:21.766Z,97956.94
2022-10-11T09:18:39.333Z,97958.09
2022-10-11T09:21:31.808Z,97962.25
2022-10-11T09:24:29.500Z,97949.69
2022-10-11T09:27:14.005Z,97959.63
2022-10-11T09:30:04.329Z,97963.09
2022-10-11T09:32:49.158Z,97952.06
2022-10-11T09:35:20.259Z,97946.97
2022-10-11T09:37:57.088Z,97949.69
2022-10-11T09:40:44.476Z,97949.75
2022-10-11T09:43:13.454Z,97940.91
2022-10-11T09:45:49.155Z,97955.44
2022-10-11T09:48:24.316Z,97949.59
2022-10-11T09:51:04.174Z,97957.44
2022-10-11T09:53:53.941Z,97956.94
2022-10-11T09:56:22.756Z,97949.31
2022-10-11T09:58:51.317Z,97945.78
2022-10-11T10:01:30.036Z,97940.22
2022-10-11T10:04:09.398Z,97942.19
2022-10-11T10:06:38.080Z,97951.31
2022-10-11T10:09:25.621Z,97956.34
2022-10-11T10:11:55.144Z,97954.66
2022-10-11T10:14:26.459Z,97959.47
2022-10-11T10:17:02.251Z,97949.22
2022-10-11T10:19:44.663Z,97957.78
2022-10-11T10:22:19.747Z,97960.81
2022-10-11T10:24:50.113Z,97959.50
2022-10-11T10:27:22.318Z,97954.56
2022-10-11T10:30:04.598Z,97966.97
2022-10-11T10:32:43.789Z,97960.41
2022-10-11T10:35:27.721Z,97964.44
2022-10-11T10:38:05.179Z,97964.03
2022-10-11T10:40:40.273Z,97957.84
2022-10-11T10:43:15.686Z,97956.16
2022-10-11T10:45:58.384Z,97964.72
2022-10-11T10:49:11.737Z,97980.22
2022-10-11T10:51:40.849Z,97973.31
2022-10-11T10:54:20.569Z,97968.38
2022-10-11T10:56:54.057Z,97969.28
2022-10-11T10:59:40.575Z,97967.22
2022-10-11T11:02:38.883Z,97964.53
2022-10-11T11:05:16.389Z,97967.88
2022-10-11T11:07:51.434Z,97974.06
2022-10-11T11:10:22.839Z,97966.06
2022-10-11T11:12:57.334Z,97968.91
2022-10-11T11:15:37.624Z,97967.13
2022-10-11T11:18:22.202Z,97969.34
2022-10-11T11:21:03.929Z,97958.25
2022-10-11T11:23:41.824Z,97964.63
2022-10-11T11:26:17.027Z,97959.22
2022-10-11T11:30:57.563Z,97962.00
2022-10-11T11:33:36.398Z,97961.88
2022-10-11T11:36:11.053Z,97967.84
2022-10-11T11:38:47.072Z,97966.47
2022-10-11T11:41:20.715Z,97960.91
2022-10-11T11:44:03.675Z,97966.31
2022-10-11T11:46:39.726Z,97959.06
2022-10-11T11:49:14.856Z,97958.00
2022-10-11T11:51:45.514Z,97956.97
2022-10-11T11:54:28.743Z,97966.41
2022-10-11T11:57:04.351Z,97965.88
2022-10-11T11:59:38.701Z,97960.53
2022-10-11T12:02:35.128Z,97963.47
2022-10-11T12:05:03.465Z,97962.69
2022-10-11T12:07:32.177Z,97954.81
2022-10-11T12:10:16.643Z,97953.88
2022-10-11T12:12:45.127Z,97956.75
2022-10-11T12:15:26.144Z,97950.50
2022-10-11T12:18:17.500Z,97955.25
2022-10-11T12:20:46.271Z,97956.41
2022-10-11T12:23:43.937Z,97956.19
2022-10-11T12:26:35.501Z,97951.13
2022-10-11T12:29:25.858Z,97952.03
2022-10-11T12:32:13.621Z,97953.56
2022-10-11T12:34:44.422Z,97955.28
2022-10-11T12:37:51.610Z,97956.16
2022-10-11T12:40:41.745Z,97955.47
2022-10-11T12:43:12.427Z,97944.41
2022-10-11T12:45:41.597Z,97948.41
2022-10-11T12:48:34.972Z,97941.25
2022-10-11T12:51:27.028Z,97937.19
2022-10-11T12:54:26.021Z,97943.28
2022-10-11T12:57:17.284Z,97946.28
2022-10-11T12:59:46.938Z,97943.00
2022-10-11T13:02:28.967Z,97936.75
2022-10-11T13:05:09.539Z,97936.31
2022-10-11T13:07:43.315Z,97936.88
2022-10-11T13:10:15.913Z,97929.66
2022-10-11T13:12:48.123Z,97931.38
2022-10-11T13:15:20.241Z,97931.19
2022-10-11T13:17:51.781Z,97939.97
2022-10-11T13:20:22.560Z,97936.22
2022-10-11T13:22:54.156Z,97942.16
2022-10-11T13:25:24.869Z,97940.97
2022-10-11T13:27:55.412Z,97941.88
2022-10-11T13:33:23.897Z,97948.03
2022-10-11T13:35:54.021Z,97945.00
2022-10-11T13:38:29.751Z,97953.47
2022-10-11T13:40:59.716Z,97950.63
2022-10-11T13:43:30.095Z,97954.03
2022-10-11T13:46:00.435Z,97950.16
2022-10-11T13:48:31.973Z,97949.31
2022-10-11T13:51:08.028Z,97952.16
2022-10-11T13:53:37.599Z,97954.03
2022-10-11T13:56:09.561Z,97942.47
2022-10-11T13:58:40.560Z,97950.53
2022-10-11T14:01:19.327Z,97945.53
2022-10-11T14:03:50.261Z,97952.91
2022-10-11T14:06:18.496Z,97950.47
2022-10-11T14:08:51.018Z,97949.78
2022-10-11T14:11:34.671Z,97958.56
2022-10-11T14:14:30.117Z,97953.78
2022-10-11T14:17:05.005Z,97957.63
2022-10-11T14:19:33.516Z,97955.56
2022-10-11T14:22:01.803Z,97946.22
2022-10-11T14:24:31.287Z,97943.41
2022-10-11T14:27:00.023Z,97946.41
2022-10-11T14:29:30.097Z,97943.13
2022-10-11T14:32:03.566Z,97943.59
2022-10-11T14:34:33.183Z,97946.28
2022-10-11T14:37:01.467Z,97949.00
2022-10-11T14:39:33.322Z,97943.66
2022-10-11T14:42:01.819Z,97942.75
2022-10-11T14:48:50.192Z,97953.56
2022-10-11T14:51:15.669Z,97947.66
2022-10-11T14:53:46.433Z,97965.66
2022-10-11T14:56:21.076Z,97958.50
2022-10-11T14:58:49.920Z,97953.91
2022-10-11T15:01:18.970Z,97961.94
2022-10-11T15:03:47.149Z,97958.69
2022-10-11T15:06:19.942Z,97959.03
2022-10-11T15:08:48.555Z,97960.78
2022-10-11T15:11:20.712Z,97969.28
2022-10-11T15:13:48.856Z,97968.72
2022-10-11T15:16:20.236Z,97965.94
2022-10-11T15:18:51.059Z,97973.84
2022-10-11T15:21:21.351Z,97966.03
2022-10-11T15:23:50.891Z,97964.06
2022-10-11T15:26:22.122Z,97966.97
2022-10-11T15:28:51.357Z,97967.94
2022-10-11T15:31:19.972Z,97962.56
2022-10-11T15:33:48.568Z,97962.22
2022-10-11T15:36:19.459Z,97968.97
2022-10-11T15:38:48.774Z,97964.84
2022-10-11T15:41:20.330Z,97968.19
2022-10-11T15:43:50.200Z,97970.72
2022-10-11T15:46:20.828Z,97966.06
2022-10-11T15:48:51.243Z,97969.97
2022-10-11T15:51:19.991Z,97970.25
2022-10-11T15:53:48.279Z,97968.03
2022-10-11T15:56:19.002Z,97971.13
2022-10-11T15:58:48.694Z,97973.13
2022-10-11T16:01:18.846Z,97983.63
2022-10-11T16:03:48.175Z,97982.66
2022-10-11T16:06:16.682Z,97987.94
2022-10-11T16:08:45.149Z,97982.91
2022-10-11T16:11:13.873Z,97981.69
2022-10-11T16:13:42.353Z,97986.56
2022-10-11T16:16:12.720Z,97989.06
2022-10-11T16:18:41.149Z,97993.91
2022-10-11T16:21:11.795Z,97984.13
2022-10-11T16:23:40.099Z,97987.97
2022-10-11T16:26:13.374Z,97997.38
2022-10-11T16:28:42.687Z,97996.94
2022-10-11T16:31:16.770Z,97996.22
2022-10-11T16:33:46.703Z,97989.84
2022-10-11T16:36:34.782Z,97996.72
2022-10-11T16:39:05.684Z,98001.84
2022-10-11T16:41:34.273Z,98000.25
2022-10-11T16:44:02.445Z,98005.91
2022-10-11T16:46:33.452Z,98006.53
2022-10-11T16:49:01.619Z,98006.06
2022-10-11T16:51:29.687Z,98006.13
2022-10-11T16:53:57.917Z,98008.34
2022-10-11T16:56:26.321Z,98019.69
2022-10-11T16:58:55.396Z,98012.91
2022-10-11T17:01:24.290Z,98013.25
2022-10-11T17:03:54.211Z,98016.72
2022-10-11T17:06:22.616Z,98019.41
2022-10-11T17:08:50.784Z,98021.63
2022-10-11T17:11:19.357Z,98027.75
2022-10-11T17:13:47.796Z,98022.56
2022-10-11T17:16:16.322Z,98019.28
2022-10-11T17:18:44.618Z,98032.28
2022-10-11T17:21:16.635Z,98029.53
2022-10-11T17:23:44.695Z,98027.69
2022-10-11T17:26:17.278Z,98029.59
2022-10-11T17:28:45.704Z,98035.25
2022-10-11T17:31:14.289Z,98035.50
2022-10-11T17:33:42.411Z,98034.78
2022-10-11T17:36:27.898Z,98035.78
2022-10-11T17:38:56.376Z,98028.66
2022-10-11T17:41:29.420Z,98031.53
2022-10-11T17:44:01.121Z,98033.53
2022-10-11T17:46:32.671Z,98027.63
2022-10-11T17:49:02.045Z,98025.38
2022-10-11T17:51:32.713Z,98029.09
2022-10-11T17:54:01.063Z,98025.81
2022-10-11T17:56:33.828Z,98030.03
2022-10-11T17:59:04.928Z,98022.19
2022-10-11T18:01:33.160Z,98029.91
2022-10-11T18:04:03.588Z,98020.75
2022-10-11T18:06:35.147Z,98031.34
2022-10-11T18:09:04.629Z,98032.47
2022-10-11T18:11:33.104Z,98027.97
2022-10-11T18:14:01.753Z,98032.06
2022-10-11T18:16:31.721Z,98026.06
2022-10-11T18:19:00.345Z,98027.81
2022-10-11T18:21:34.348Z,98019.97
2022-10-11T18:24:07.865Z,98030.31
2022-10-11T18:26:36.035Z,98018.16
2022-10-11T18:29:05.375Z,98026.75
2022-10-11T18:31:35.300Z,98020.75
2022-10-11T18:34:04.743Z,98023.22
2022-10-11T18:36:34.155Z,98023.09
2022-10-11T18:39:06.520Z,98019.59
2022-10-11T18:41:35.659Z,98017.81
2022-10-11T18:44:06.823Z,98022.47
2022-10-11T18:46:35.707Z,98017.91
2022-10-11T18:49:04.607Z,98023.19
2022-10-11T18:51:34.598Z,98022.91
2022-10-11T18:54:03.366Z,98028.31
2022-10-11T18:56:34.676Z,98025.59
2022-10-11T18:59:02.934Z,98023.06
2022-10-11T19:01:33.982Z,98026.81
2022-10-11T19:04:04.384Z,98026.63
2022-10-11T19:06:34.257Z,98032.97
2022-10-11T19:09:04.920Z,98032.13
2022-10-11T19:11:34.624Z,98030.38
2022-10-11T19:14:06.433Z,98027.78
2022-10-11T19:16:37.601Z,98030.25
2022-10-11T19:19:06.836Z,98027.59
2022-10-11T19:21:35.195Z,98024.31
2022-10-11T19:24:03.380Z,98024.34
2022-10-11T19:26:34.894Z,98025.19
2022-10-11T19:29:06.079Z,98024.31
2022-10-11T19:31:36.257Z,98026.09
2022-10-11T19:34:05.021Z,98026.16
2022-10-11T19:36:36.637Z,98024.50
2022-10-11T19:39:06.711Z,98021.16
2022-10-11T19:41:36.469Z,98029.88
2022-10-11T19:44:04.997Z,98023.13
2022-10-11T19:49:24.861Z,98021.38
2022-10-11T19:51:53.633Z,98026.66
2022-10-11T19:54:21.801Z,98028.41
2022-10-11T19:56:51.363Z,98030.97
2022-10-11T19:59:19.698Z,98031.00
2022-10-11T20:01:52.354Z,98030.97
2022-10-11T20:07:11.180Z,98024.22
2022-10-11T20:09:39.593Z,98032.78
2022-10-11T20:12:09.864Z,98034.34
2022-10-11T20:14:37.990Z,98032.66
2022-10-11T20:17:06.001Z,98033.47
2022-10-11T20:19:34.167Z,98037.75
2022-10-11T20:22:02.965Z,98036.94
2022-10-11T20:24:33.622Z,98033.56
2022-10-11T20:27:03.018Z,98032.63
2022-10-11T20:29:33.162Z,98033.59
2022-10-11T20:32:02.012Z,98037.03
2022-10-11T20:34:31.167Z,98045.75
2022-10-11T20:36:59.924Z,98037.25
2022-10-11T20:39:29.269Z,98042.50
2022-10-11T20:41:57.602Z,98033.97
2022-10-11T20:44:25.882Z,98035.69
2022-10-11T20:46:56.191Z,98047.81
2022-10-11T20:49:25.577Z,98041.00
2022-10-11T20:51:53.616Z,98037.53
2022-10-11T20:54:21.760Z,98040.13
2022-10-11T20:56:49.927Z,98041.78
2022-10-11T20:59:17.966Z,98042.63
2022-10-11T21:01:46.318Z,98045.91
2022-10-11T21:04:19.592Z,98040.09
2022-10-11T21:06:48.461Z,98039.06
2022-10-11T21:09:17.488Z,98046.00
2022-10-11T21:11:46.062Z,98036.47
2022-10-11T21:14:14.768Z,98036.69
2022-10-11T21:16:43.463Z,98032.19
2022-10-11T21:19:14.888Z,98034.88
2022-10-11T21:21:49.720Z,98028.78
2022-10-11T21:24:20.832Z,98028.84
2022-10-11T21:26:49.130Z,98029.72
2022-10-11T21:29:17.621Z,98036.78
2022-10-11T21:31:45.917Z,98031.69
2022-10-11T21:34:14.226Z,98034.28
2022-10-11T21:36:42.607Z,98036.81
2022-10-11T21:39:12.031Z,98039.28
2022-10-11T21:41:42.269Z,98031.56
2022-10-11T21:44:10.785Z,98030.59
2022-10-11T21:49:26.947Z,98041.28
2022-10-11T21:51:55.473Z,98035.38
2022-10-11T21:54:25.108Z,98035.25
2022-10-11T21:56:53.225Z,98035.19
2022-10-11T21:59:22.707Z,98035.22
2022-10-11T22:01:50.889Z,98036.03
2022-10-11T22:04:19.068Z,98038.53
2022-10-11T22:06:47.172Z,98041.06
2022-10-11T22:09:15.477Z,98029.00
2022-10-11T22:11:45.223Z,98042.81
2022-10-11T22:14:13.747Z,98035.97
2022-10-11T22:16:41.793Z,98036.03
2022-10-11T22:19:09.826Z,98041.28
2022-10-11T22:21:44.030Z,98037.78
2022-10-11T22:24:13.038Z,98032.59
2022-10-11T22:26:41.287Z,98030.84
2022-10-11T22:29:10.672Z,98031.81
2022-10-11T22:31:39.435Z,98032.69
2022-10-11T22:34:07.888Z,98027.53
2022-10-11T22:36:36.310Z,98032.69
2022-10-11T22:39:07.866Z,98032.81
2022-10-11T22:41:36.496Z,98040.59
2022-10-11T22:44:05.648Z,98041.44
2022-10-11T22:46:35.196Z,98040.69
2022-10-11T22:49:03.205Z,98043.34
2022-10-11T22:51:32.914Z,98045.84
2022-10-11T22:54:01.481Z,98050.19
2022-10-11T22:56:30.040Z,98042.44
2022-10-11T22:59:00.092Z,98041.47
2022-10-11T23:01:28.647Z,98036.31
2022-10-11T23:03:58.091Z,98042.38
2022-10-11T23:06:26.460Z,98035.44
2022-10-11T23:08:54.468Z,98036.31
2022-10-11T23:11:22.607Z,98036.34
2022-10-11T23:13:51.173Z,98043.22
2022-10-11T23:16:19.217Z,98037.25
2022-10-11T23:18:47.237Z,98035.50
2022-10-11T23:21:17.007Z,98039.81
2022-10-11T23:23:45.038Z,98026.94
2022-10-11T23:26:14.529Z,98027.91
2022-10-11T23:28:43.743Z,98029.56
2022-10-11T23:31:13.695Z,98033.06
2022-10-11T23:33:41.793Z,98034.75
2022-10-11T23:36:16.499Z,98037.34
2022-10-11T23:38:45.147Z,98033.13
2022-10-11T23:41:13.494Z,98040.88
2022-10-11T23:43:41.792Z,98032.22
2022-10-11T23:46:09.781Z,98044.38
2022-10-11T23:48:38.053Z,98056.41
2022-10-11T23:51:06.653Z,98050.34
2022-10-11T23:53:36.431Z,98047.72
2022-10-11T23:56:04.868Z,98039.09
2022-10-11T23:58:33.382Z,98044.28
